sensor_id;sensor_type;location;lat;lon;timestamp;P1;durP1;ratioP1;P2;durP2;ratioP2
10517;SDS011;5307;42.548;22.968;2022-12-17T00:02:16;8.48;;;3.28;;
10517;SDS011;5307;42.548;22.968;2022-12-17T00:05:02;10.27;;;3.85;;
10517;SDS011;5307;42.548;22.968;2022-12-17T00:07:46;6.30;;;3.42;;
10517;SDS011;5307;42.548;22.968;2022-12-17T00:10:38;4.90;;;3.03;;
10517;SDS011;5307;42.548;22.968;2022-12-17T00:13:22;6.80;;;3.00;;
10517;SDS011;5307;42.548;22.968;2022-12-17T00:16:03;9.43;;;3.83;;
10517;SDS011;5307;42.548;22.968;2022-12-17T00:18:47;6.57;;;3.42;;
10517;SDS011;5307;42.548;22.968;2022-12-17T00:21:33;8.65;;;3.60;;
10517;SDS011;5307;42.548;22.968;2022-12-17T00:24:17;6.07;;;3.47;;
10517;SDS011;5307;42.548;22.968;2022-12-17T00:27:01;6.32;;;3.50;;
10517;SDS011;5307;42.548;22.968;2022-12-17T00:29:45;8.10;;;4.05;;
10517;SDS011;5307;42.548;22.968;2022-12-17T00:32:29;11.48;;;3.85;;
10517;SDS011;5307;42.548;22.968;2022-12-17T00:35:14;9.43;;;3.22;;
10517;SDS011;5307;42.548;22.968;2022-12-17T00:37:59;6.63;;;3.30;;
10517;SDS011;5307;42.548;22.968;2022-12-17T00:40:43;9.73;;;4.72;;
10517;SDS011;5307;42.548;22.968;2022-12-17T00:43:32;12.48;;;3.72;;
10517;SDS011;5307;42.548;22.968;2022-12-17T00:46:17;9.05;;;3.72;;
10517;SDS011;5307;42.548;22.968;2022-12-17T00:49:00;8.07;;;3.65;;
10517;SDS011;5307;42.548;22.968;2022-12-17T00:51:44;6.15;;;3.30;;
10517;SDS011;5307;42.548;22.968;2022-12-17T00:54:30;8.20;;;3.60;;
10517;SDS011;5307;42.548;22.968;2022-12-17T00:57:19;9.07;;;3.10;;
10517;SDS011;5307;42.548;22.968;2022-12-17T01:00:04;3.78;;;3.00;;
10517;SDS011;5307;42.548;22.968;2022-12-17T01:02:49;7.00;;;3.10;;
10517;SDS011;5307;42.548;22.968;2022-12-17T01:05:33;5.18;;;3.15;;
10517;SDS011;5307;42.548;22.968;2022-12-17T01:08:17;7.38;;;3.60;;
10517;SDS011;5307;42.548;22.968;2022-12-17T01:11:04;7.13;;;3.72;;
10517;SDS011;5307;42.548;22.968;2022-12-17T01:13:49;6.07;;;3.58;;
10517;SDS011;5307;42.548;22.968;2022-12-17T01:16:34;8.95;;;3.78;;
10517;SDS011;5307;42.548;22.968;2022-12-17T01:19:23;7.53;;;3.58;;
10517;SDS011;5307;42.548;22.968;2022-12-17T01:22:07;11.95;;;3.53;;
10517;SDS011;5307;42.548;22.968;2022-12-17T01:24:52;10.00;;;3.72;;
10517;SDS011;5307;42.548;22.968;2022-12-17T01:27:37;5.32;;;3.78;;
10517;SDS011;5307;42.548;22.968;2022-12-17T01:30:21;8.52;;;3.95;;
10517;SDS011;5307;42.548;22.968;2022-12-17T01:33:06;13.27;;;4.63;;
10517;SDS011;5307;42.548;22.968;2022-12-17T01:35:53;12.25;;;4.07;;
10517;SDS011;5307;42.548;22.968;2022-12-17T01:38:37;8.57;;;4.05;;
10517;SDS011;5307;42.548;22.968;2022-12-17T01:41:21;9.32;;;4.55;;
10517;SDS011;5307;42.548;22.968;2022-12-17T01:47:35;13.48;;;4.28;;
10517;SDS011;5307;42.548;22.968;2022-12-17T01:50:23;8.18;;;4.22;;
10517;SDS011;5307;42.548;22.968;2022-12-17T01:53:09;9.10;;;4.18;;
10517;SDS011;5307;42.548;22.968;2022-12-17T01:55:54;7.13;;;3.75;;
10517;SDS011;5307;42.548;22.968;2022-12-17T01:58:39;8.98;;;3.88;;
10517;SDS011;5307;42.548;22.968;2022-12-17T02:01:24;11.07;;;3.60;;
10517;SDS011;5307;42.548;22.968;2022-12-17T02:04:10;7.50;;;3.80;;
10517;SDS011;5307;42.548;22.968;2022-12-17T02:06:58;8.25;;;3.97;;
10517;SDS011;5307;42.548;22.968;2022-12-17T02:09:54;6.38;;;3.88;;
10517;SDS011;5307;42.548;22.968;2022-12-17T02:12:46;9.50;;;3.92;;
10517;SDS011;5307;42.548;22.968;2022-12-17T02:15:36;7.82;;;4.50;;
10517;SDS011;5307;42.548;22.968;2022-12-17T02:18:26;9.15;;;3.85;;
10517;SDS011;5307;42.548;22.968;2022-12-17T02:21:15;8.10;;;4.03;;
10517;SDS011;5307;42.548;22.968;2022-12-17T02:24:09;9.35;;;4.07;;
10517;SDS011;5307;42.548;22.968;2022-12-17T02:27:00;8.57;;;4.10;;
10517;SDS011;5307;42.548;22.968;2022-12-17T02:29:47;4.97;;;3.45;;
10517;SDS011;5307;42.548;22.968;2022-12-17T02:32:34;14.15;;;4.57;;
10517;SDS011;5307;42.548;22.968;2022-12-17T02:35:23;10.05;;;4.63;;
10517;SDS011;5307;42.548;22.968;2022-12-17T02:38:16;10.10;;;4.10;;
10517;SDS011;5307;42.548;22.968;2022-12-17T02:41:01;9.10;;;4.30;;
10517;SDS011;5307;42.548;22.968;2022-12-17T02:44:03;10.55;;;4.85;;
10517;SDS011;5307;42.548;22.968;2022-12-17T02:46:50;9.43;;;4.57;;
10517;SDS011;5307;42.548;22.968;2022-12-17T02:49:35;11.95;;;4.07;;
10517;SDS011;5307;42.548;22.968;2022-12-17T02:52:20;7.43;;;3.83;;
10517;SDS011;5307;42.548;22.968;2022-12-17T02:55:05;12.60;;;4.50;;
10517;SDS011;5307;42.548;22.968;2022-12-17T02:57:49;14.15;;;4.85;;
10517;SDS011;5307;42.548;22.968;2022-12-17T03:00:35;7.03;;;4.13;;
10517;SDS011;5307;42.548;22.968;2022-12-17T03:03:19;5.90;;;4.13;;
10517;SDS011;5307;42.548;22.968;2022-12-17T03:06:04;10.68;;;4.57;;
10517;SDS011;5307;42.548;22.968;2022-12-17T03:08:48;10.20;;;4.15;;
10517;SDS011;5307;42.548;22.968;2022-12-17T03:11:38;9.13;;;4.75;;
10517;SDS011;5307;42.548;22.968;2022-12-17T03:14:22;15.15;;;5.03;;
10517;SDS011;5307;42.548;22.968;2022-12-17T03:17:07;13.23;;;5.75;;
10517;SDS011;5307;42.548;22.968;2022-12-17T03:19:51;8.52;;;4.88;;
10517;SDS011;5307;42.548;22.968;2022-12-17T03:22:36;13.23;;;5.18;;
10517;SDS011;5307;42.548;22.968;2022-12-17T03:25:20;10.50;;;4.47;;
10517;SDS011;5307;42.548;22.968;2022-12-17T03:28:10;9.93;;;4.40;;
10517;SDS011;5307;42.548;22.968;2022-12-17T03:30:55;10.40;;;5.03;;
10517;SDS011;5307;42.548;22.968;2022-12-17T03:33:38;8.70;;;4.65;;
10517;SDS011;5307;42.548;22.968;2022-12-17T03:36:22;8.63;;;4.63;;
10517;SDS011;5307;42.548;22.968;2022-12-17T03:39:07;12.43;;;5.28;;
10517;SDS011;5307;42.548;22.968;2022-12-17T03:41:50;8.75;;;4.57;;
10517;SDS011;5307;42.548;22.968;2022-12-17T03:44:35;11.00;;;4.97;;
10517;SDS011;5307;42.548;22.968;2022-12-17T03:47:20;8.90;;;4.78;;
10517;SDS011;5307;42.548;22.968;2022-12-17T03:50:05;10.65;;;5.07;;
10517;SDS011;5307;42.548;22.968;2022-12-17T03:52:50;13.25;;;5.57;;
10517;SDS011;5307;42.548;22.968;2022-12-17T03:55:34;13.30;;;5.75;;
10517;SDS011;5307;42.548;22.968;2022-12-17T03:58:19;12.35;;;6.20;;
10517;SDS011;5307;42.548;22.968;2022-12-17T04:01:06;10.45;;;5.07;;
10517;SDS011;5307;42.548;22.968;2022-12-17T04:03:50;15.38;;;5.90;;
10517;SDS011;5307;42.548;22.968;2022-12-17T04:06:36;14.45;;;5.32;;
10517;SDS011;5307;42.548;22.968;2022-12-17T04:09:20;17.95;;;6.70;;
10517;SDS011;5307;42.548;22.968;2022-12-17T04:12:04;11.75;;;5.80;;
10517;SDS011;5307;42.548;22.968;2022-12-17T04:14:49;17.00;;;6.63;;
10517;SDS011;5307;42.548;22.968;2022-12-17T04:17:33;9.32;;;4.72;;
10517;SDS011;5307;42.548;22.968;2022-12-17T04:20:13;10.85;;;4.38;;
10517;SDS011;5307;42.548;22.968;2022-12-17T04:22:59;13.93;;;5.30;;
10517;SDS011;5307;42.548;22.968;2022-12-17T04:25:43;13.35;;;6.15;;
10517;SDS011;5307;42.548;22.968;2022-12-17T04:28:27;8.38;;;4.93;;
10517;SDS011;5307;42.548;22.968;2022-12-17T04:31:23;17.42;;;5.32;;
10517;SDS011;5307;42.548;22.968;2022-12-17T04:34:07;11.07;;;5.45;;
10517;SDS011;5307;42.548;22.968;2022-12-17T04:37:02;13.25;;;5.38;;
10517;SDS011;5307;42.548;22.968;2022-12-17T04:39:48;9.93;;;5.72;;
10517;SDS011;5307;42.548;22.968;2022-12-17T04:42:32;12.93;;;5.55;;
10517;SDS011;5307;42.548;22.968;2022-12-17T04:45:17;10.80;;;5.75;;
10517;SDS011;5307;42.548;22.968;2022-12-17T04:48:01;16.25;;;5.95;;
10517;SDS011;5307;42.548;22.968;2022-12-17T04:50:51;17.45;;;5.85;;
10517;SDS011;5307;42.548;22.968;2022-12-17T04:53:36;14.15;;;6.32;;
10517;SDS011;5307;42.548;22.968;2022-12-17T04:56:21;15.40;;;5.53;;
10517;SDS011;5307;42.548;22.968;2022-12-17T04:59:06;13.30;;;6.13;;
10517;SDS011;5307;42.548;22.968;2022-12-17T05:01:50;13.57;;;5.63;;
10517;SDS011;5307;42.548;22.968;2022-12-17T05:04:34;11.13;;;5.60;;
10517;SDS011;5307;42.548;22.968;2022-12-17T05:07:19;14.82;;;5.90;;
10517;SDS011;5307;42.548;22.968;2022-12-17T05:10:04;11.98;;;5.75;;
10517;SDS011;5307;42.548;22.968;2022-12-17T05:12:55;12.05;;;5.90;;
10517;SDS011;5307;42.548;22.968;2022-12-17T05:15:40;12.98;;;6.72;;
10517;SDS011;5307;42.548;22.968;2022-12-17T05:18:24;17.45;;;6.20;;
10517;SDS011;5307;42.548;22.968;2022-12-17T05:21:08;15.43;;;6.38;;
10517;SDS011;5307;42.548;22.968;2022-12-17T05:23:52;13.77;;;6.20;;
10517;SDS011;5307;42.548;22.968;2022-12-17T05:26:36;9.95;;;5.32;;
10517;SDS011;5307;42.548;22.968;2022-12-17T05:29:22;14.85;;;5.68;;
10517;SDS011;5307;42.548;22.968;2022-12-17T05:32:06;10.30;;;5.47;;
10517;SDS011;5307;42.548;22.968;2022-12-17T05:34:50;7.70;;;4.70;;
10517;SDS011;5307;42.548;22.968;2022-12-17T05:37:34;10.40;;;4.80;;
10517;SDS011;5307;42.548;22.968;2022-12-17T05:40:18;8.55;;;5.00;;
10517;SDS011;5307;42.548;22.968;2022-12-17T05:43:03;12.48;;;4.78;;
10517;SDS011;5307;42.548;22.968;2022-12-17T05:45:50;10.48;;;5.03;;
10517;SDS011;5307;42.548;22.968;2022-12-17T05:48:34;12.35;;;5.50;;
10517;SDS011;5307;42.548;22.968;2022-12-17T05:51:19;11.70;;;5.85;;
10517;SDS011;5307;42.548;22.968;2022-12-17T05:54:04;14.98;;;5.57;;
10517;SDS011;5307;42.548;22.968;2022-12-17T05:56:49;13.02;;;6.05;;
10517;SDS011;5307;42.548;22.968;2022-12-17T05:59:33;14.68;;;6.88;;
10517;SDS011;5307;42.548;22.968;2022-12-17T06:02:19;11.85;;;5.95;;
10517;SDS011;5307;42.548;22.968;2022-12-17T06:05:03;12.63;;;6.55;;
10517;SDS011;5307;42.548;22.968;2022-12-17T06:07:48;16.48;;;6.65;;
10517;SDS011;5307;42.548;22.968;2022-12-17T06:10:32;8.85;;;5.78;;
10517;SDS011;5307;42.548;22.968;2022-12-17T06:13:31;11.27;;;5.70;;
10517;SDS011;5307;42.548;22.968;2022-12-17T06:16:15;10.15;;;6.00;;
10517;SDS011;5307;42.548;22.968;2022-12-17T06:19:01;11.77;;;5.97;;
10517;SDS011;5307;42.548;22.968;2022-12-17T06:21:45;14.98;;;7.30;;
10517;SDS011;5307;42.548;22.968;2022-12-17T06:24:29;13.27;;;5.80;;
10517;SDS011;5307;42.548;22.968;2022-12-17T06:27:13;11.90;;;6.35;;
10517;SDS011;5307;42.548;22.968;2022-12-17T06:29:57;10.90;;;6.47;;
10517;SDS011;5307;42.548;22.968;2022-12-17T06:32:41;14.27;;;6.72;;
10517;SDS011;5307;42.548;22.968;2022-12-17T06:35:38;11.50;;;5.50;;
10517;SDS011;5307;42.548;22.968;2022-12-17T06:38:21;9.60;;;5.45;;
10517;SDS011;5307;42.548;22.968;2022-12-17T06:41:05;11.82;;;5.85;;
10517;SDS011;5307;42.548;22.968;2022-12-17T06:43:50;12.00;;;6.60;;
10517;SDS011;5307;42.548;22.968;2022-12-17T06:46:34;19.67;;;9.05;;
10517;SDS011;5307;42.548;22.968;2022-12-17T06:49:18;15.52;;;7.65;;
10517;SDS011;5307;42.548;22.968;2022-12-17T06:52:03;16.17;;;8.05;;
10517;SDS011;5307;42.548;22.968;2022-12-17T06:54:47;12.48;;;8.25;;
10517;SDS011;5307;42.548;22.968;2022-12-17T06:57:31;18.42;;;8.98;;
10517;SDS011;5307;42.548;22.968;2022-12-17T07:00:15;17.63;;;10.38;;
10517;SDS011;5307;42.548;22.968;2022-12-17T07:03:00;16.83;;;8.80;;
10517;SDS011;5307;42.548;22.968;2022-12-17T07:05:44;18.10;;;9.57;;
10517;SDS011;5307;42.548;22.968;2022-12-17T07:08:30;18.17;;;11.18;;
10517;SDS011;5307;42.548;22.968;2022-12-17T07:11:14;17.23;;;8.90;;
10517;SDS011;5307;42.548;22.968;2022-12-17T07:13:58;11.82;;;6.32;;
10517;SDS011;5307;42.548;22.968;2022-12-17T07:16:42;13.50;;;7.07;;
10517;SDS011;5307;42.548;22.968;2022-12-17T07:19:26;9.77;;;6.93;;
10517;SDS011;5307;42.548;22.968;2022-12-17T07:22:22;14.70;;;6.95;;
10517;SDS011;5307;42.548;22.968;2022-12-17T07:25:07;12.75;;;7.30;;
10517;SDS011;5307;42.548;22.968;2022-12-17T07:27:52;12.60;;;7.10;;
10517;SDS011;5307;42.548;22.968;2022-12-17T07:30:37;12.80;;;7.80;;
10517;SDS011;5307;42.548;22.968;2022-12-17T07:33:21;12.57;;;7.68;;
10517;SDS011;5307;42.548;22.968;2022-12-17T07:36:05;12.13;;;7.10;;
10517;SDS011;5307;42.548;22.968;2022-12-17T07:38:49;12.82;;;7.93;;
10517;SDS011;5307;42.548;22.968;2022-12-17T07:41:35;12.30;;;7.25;;
10517;SDS011;5307;42.548;22.968;2022-12-17T07:44:19;10.27;;;6.55;;
10517;SDS011;5307;42.548;22.968;2022-12-17T07:47:04;8.88;;;6.25;;
10517;SDS011;5307;42.548;22.968;2022-12-17T07:49:48;10.25;;;6.45;;
10517;SDS011;5307;42.548;22.968;2022-12-17T07:52:32;10.43;;;6.35;;
10517;SDS011;5307;42.548;22.968;2022-12-17T07:55:16;10.23;;;5.55;;
10517;SDS011;5307;42.548;22.968;2022-12-17T07:58:03;10.32;;;5.82;;
10517;SDS011;5307;42.548;22.968;2022-12-17T08:00:48;10.35;;;6.97;;
10517;SDS011;5307;42.548;22.968;2022-12-17T08:03:32;16.33;;;7.90;;
10517;SDS011;5307;42.548;22.968;2022-12-17T08:06:16;15.00;;;7.30;;
10517;SDS011;5307;42.548;22.968;2022-12-17T08:09:03;12.38;;;8.35;;
10517;SDS011;5307;42.548;22.968;2022-12-17T08:11:47;17.52;;;7.85;;
10517;SDS011;5307;42.548;22.968;2022-12-17T08:14:33;12.43;;;7.32;;
10517;SDS011;5307;42.548;22.968;2022-12-17T08:17:17;14.90;;;7.75;;
10517;SDS011;5307;42.548;22.968;2022-12-17T08:20:01;13.05;;;7.78;;
10517;SDS011;5307;42.548;22.968;2022-12-17T08:22:45;19.45;;;10.27;;
10517;SDS011;5307;42.548;22.968;2022-12-17T08:25:29;12.98;;;8.70;;
10517;SDS011;5307;42.548;22.968;2022-12-17T08:28:13;16.00;;;8.20;;
10517;SDS011;5307;42.548;22.968;2022-12-17T08:30:58;14.70;;;8.77;;
10517;SDS011;5307;42.548;22.968;2022-12-17T08:33:43;21.75;;;9.05;;
10517;SDS011;5307;42.548;22.968;2022-12-17T08:36:27;22.63;;;8.98;;
10517;SDS011;5307;42.548;22.968;2022-12-17T08:39:11;23.95;;;8.98;;
10517;SDS011;5307;42.548;22.968;2022-12-17T08:41:55;24.35;;;9.75;;
10517;SDS011;5307;42.548;22.968;2022-12-17T08:44:38;28.65;;;11.35;;
10517;SDS011;5307;42.548;22.968;2022-12-17T08:47:24;25.98;;;10.80;;
10517;SDS011;5307;42.548;22.968;2022-12-17T08:50:08;27.20;;;14.98;;
10517;SDS011;5307;42.548;22.968;2022-12-17T08:52:56;24.77;;;11.50;;
10517;SDS011;5307;42.548;22.968;2022-12-17T08:55:40;23.02;;;10.95;;
10517;SDS011;5307;42.548;22.968;2022-12-17T08:58:25;14.15;;;9.02;;
10517;SDS011;5307;42.548;22.968;2022-12-17T09:01:08;23.58;;;10.43;;
10517;SDS011;5307;42.548;22.968;2022-12-17T09:03:54;21.73;;;10.85;;
10517;SDS011;5307;42.548;22.968;2022-12-17T09:06:53;23.77;;;11.23;;
10517;SDS011;5307;42.548;22.968;2022-12-17T09:09:37;23.02;;;10.55;;
10517;SDS011;5307;42.548;22.968;2022-12-17T09:12:21;21.60;;;12.32;;
10517;SDS011;5307;42.548;22.968;2022-12-17T09:15:06;31.15;;;17.48;;
10517;SDS011;5307;42.548;22.968;2022-12-17T09:17:50;25.05;;;14.10;;
10517;SDS011;5307;42.548;22.968;2022-12-17T09:20:36;28.13;;;14.55;;
10517;SDS011;5307;42.548;22.968;2022-12-17T09:23:20;25.65;;;12.38;;
10517;SDS011;5307;42.548;22.968;2022-12-17T09:26:05;37.28;;;17.42;;
10517;SDS011;5307;42.548;22.968;2022-12-17T09:28:49;33.10;;;17.27;;
10517;SDS011;5307;42.548;22.968;2022-12-17T09:31:34;16.92;;;7.68;;
10517;SDS011;5307;42.548;22.968;2022-12-17T09:34:18;19.58;;;9.93;;
10517;SDS011;5307;42.548;22.968;2022-12-17T09:37:04;13.35;;;8.40;;
10517;SDS011;5307;42.548;22.968;2022-12-17T09:39:45;24.23;;;11.63;;
10517;SDS011;5307;42.548;22.968;2022-12-17T09:42:30;12.15;;;6.65;;
10517;SDS011;5307;42.548;22.968;2022-12-17T09:45:21;7.40;;;4.50;;
10517;SDS011;5307;42.548;22.968;2022-12-17T09:48:12;4.95;;;2.88;;
10517;SDS011;5307;42.548;22.968;2022-12-17T09:51:03;11.02;;;6.80;;
10517;SDS011;5307;42.548;22.968;2022-12-17T09:53:49;11.93;;;6.63;;
10517;SDS011;5307;42.548;22.968;2022-12-17T09:56:35;6.60;;;4.07;;
10517;SDS011;5307;42.548;22.968;2022-12-17T09:59:22;5.22;;;3.30;;
10517;SDS011;5307;42.548;22.968;2022-12-17T10:02:13;1.30;;;1.13;;
10517;SDS011;5307;42.548;22.968;2022-12-17T10:04:59;12.38;;;5.68;;
10517;SDS011;5307;42.548;22.968;2022-12-17T10:07:46;4.85;;;2.65;;
10517;SDS011;5307;42.548;22.968;2022-12-17T10:10:33;17.33;;;8.10;;
10517;SDS011;5307;42.548;22.968;2022-12-17T10:13:21;8.90;;;3.88;;
10517;SDS011;5307;42.548;22.968;2022-12-17T10:16:15;6.70;;;4.32;;
10517;SDS011;5307;42.548;22.968;2022-12-17T10:19:03;12.25;;;4.38;;
10517;SDS011;5307;42.548;22.968;2022-12-17T10:21:48;12.10;;;7.05;;
10517;SDS011;5307;42.548;22.968;2022-12-17T10:24:42;8.25;;;3.60;;
10517;SDS011;5307;42.548;22.968;2022-12-17T10:27:29;41.17;;;15.18;;
10517;SDS011;5307;42.548;22.968;2022-12-17T10:30:13;33.88;;;14.30;;
10517;SDS011;5307;42.548;22.968;2022-12-17T10:32:58;7.28;;;2.83;;
10517;SDS011;5307;42.548;22.968;2022-12-17T10:35:48;10.73;;;3.95;;
10517;SDS011;5307;42.548;22.968;2022-12-17T10:38:32;8.63;;;4.65;;
10517;SDS011;5307;42.548;22.968;2022-12-17T10:41:18;8.98;;;5.63;;
10517;SDS011;5307;42.548;22.968;2022-12-17T10:47:08;14.55;;;8.00;;
10517;SDS011;5307;42.548;22.968;2022-12-17T10:49:57;20.10;;;10.82;;
10517;SDS011;5307;42.548;22.968;2022-12-17T10:52:42;36.40;;;21.17;;
10517;SDS011;5307;42.548;22.968;2022-12-17T10:55:27;20.45;;;13.13;;
10517;SDS011;5307;42.548;22.968;2022-12-17T10:58:14;10.40;;;7.05;;
10517;SDS011;5307;42.548;22.968;2022-12-17T11:01:03;5.65;;;2.78;;
10517;SDS011;5307;42.548;22.968;2022-12-17T11:03:48;5.95;;;3.30;;
10517;SDS011;5307;42.548;22.968;2022-12-17T11:06:34;7.28;;;3.95;;
10517;SDS011;5307;42.548;22.968;2022-12-17T11:09:23;6.70;;;3.85;;
10517;SDS011;5307;42.548;22.968;2022-12-17T11:12:14;5.50;;;3.80;;
10517;SDS011;5307;42.548;22.968;2022-12-17T11:15:02;8.57;;;2.70;;
10517;SDS011;5307;42.548;22.968;2022-12-17T11:17:56;5.95;;;2.60;;
10517;SDS011;5307;42.548;22.968;2022-12-17T11:20:43;5.05;;;3.35;;
10517;SDS011;5307;42.548;22.968;2022-12-17T11:23:31;8.35;;;4.78;;
10517;SDS011;5307;42.548;22.968;2022-12-17T11:26:18;7.75;;;4.57;;
10517;SDS011;5307;42.548;22.968;2022-12-17T11:29:04;8.23;;;4.68;;
10517;SDS011;5307;42.548;22.968;2022-12-17T11:32:00;9.27;;;5.72;;
10517;SDS011;5307;42.548;22.968;2022-12-17T11:35:05;9.90;;;5.60;;
10517;SDS011;5307;42.548;22.968;2022-12-17T11:37:58;8.35;;;5.07;;
10517;SDS011;5307;42.548;22.968;2022-12-17T11:40:50;17.90;;;9.07;;
10517;SDS011;5307;42.548;22.968;2022-12-17T11:43:41;15.27;;;8.95;;
10517;SDS011;5307;42.548;22.968;2022-12-17T11:46:32;25.80;;;13.32;;
10517;SDS011;5307;42.548;22.968;2022-12-17T11:49:28;13.85;;;7.80;;
10517;SDS011;5307;42.548;22.968;2022-12-17T11:52:31;12.55;;;5.88;;
10517;SDS011;5307;42.548;22.968;2022-12-17T11:55:23;21.40;;;8.68;;
10517;SDS011;5307;42.548;22.968;2022-12-17T11:58:17;10.52;;;6.10;;
10517;SDS011;5307;42.548;22.968;2022-12-17T12:01:07;6.38;;;3.65;;
10517;SDS011;5307;42.548;22.968;2022-12-17T12:04:01;9.15;;;6.25;;
10517;SDS011;5307;42.548;22.968;2022-12-17T12:06:56;16.60;;;10.38;;
10517;SDS011;5307;42.548;22.968;2022-12-17T12:09:53;19.63;;;11.32;;
10517;SDS011;5307;42.548;22.968;2022-12-17T12:12:45;25.33;;;14.18;;
10517;SDS011;5307;42.548;22.968;2022-12-17T12:15:41;17.13;;;8.80;;
10517;SDS011;5307;42.548;22.968;2022-12-17T12:18:37;12.63;;;7.35;;
10517;SDS011;5307;42.548;22.968;2022-12-17T12:21:32;20.95;;;11.85;;
10517;SDS011;5307;42.548;22.968;2022-12-17T12:24:35;12.63;;;6.88;;
10517;SDS011;5307;42.548;22.968;2022-12-17T12:27:35;15.93;;;9.50;;
10517;SDS011;5307;42.548;22.968;2022-12-17T12:30:23;11.60;;;6.55;;
10517;SDS011;5307;42.548;22.968;2022-12-17T12:33:14;36.75;;;17.75;;
10517;SDS011;5307;42.548;22.968;2022-12-17T12:36:07;21.65;;;9.07;;
10517;SDS011;5307;42.548;22.968;2022-12-17T12:38:54;16.95;;;8.98;;
10517;SDS011;5307;42.548;22.968;2022-12-17T12:41:41;14.43;;;8.95;;
10517;SDS011;5307;42.548;22.968;2022-12-17T12:44:36;7.30;;;4.30;;
10517;SDS011;5307;42.548;22.968;2022-12-17T12:47:29;13.82;;;7.55;;
10517;SDS011;5307;42.548;22.968;2022-12-17T12:50:21;12.70;;;9.30;;
10517;SDS011;5307;42.548;22.968;2022-12-17T12:53:12;13.48;;;7.53;;
10517;SDS011;5307;42.548;22.968;2022-12-17T12:55:56;11.90;;;8.45;;
10517;SDS011;5307;42.548;22.968;2022-12-17T12:58:40;19.88;;;12.60;;
10517;SDS011;5307;42.548;22.968;2022-12-17T13:01:30;32.05;;;20.00;;
10517;SDS011;5307;42.548;22.968;2022-12-17T13:04:25;25.05;;;16.23;;
10517;SDS011;5307;42.548;22.968;2022-12-17T13:07:21;24.40;;;15.98;;
10517;SDS011;5307;42.548;22.968;2022-12-17T13:09:51;23.70;;;12.18;;
10517;SDS011;5307;42.548;22.968;2022-12-17T13:12:21;18.40;;;11.27;;
10517;SDS011;5307;42.548;22.968;2022-12-17T13:14:54;22.42;;;15.25;;
10517;SDS011;5307;42.548;22.968;2022-12-17T13:17:31;16.05;;;9.75;;
10517;SDS011;5307;42.548;22.968;2022-12-17T13:20:18;28.45;;;14.90;;
10517;SDS011;5307;42.548;22.968;2022-12-17T13:22:49;18.92;;;9.45;;
10517;SDS011;5307;42.548;22.968;2022-12-17T13:25:18;24.42;;;13.02;;
10517;SDS011;5307;42.548;22.968;2022-12-17T13:27:47;26.70;;;11.98;;
10517;SDS011;5307;42.548;22.968;2022-12-17T13:30:22;27.38;;;15.75;;
10517;SDS011;5307;42.548;22.968;2022-12-17T13:33:01;29.60;;;15.10;;
10517;SDS011;5307;42.548;22.968;2022-12-17T13:35:39;34.05;;;21.50;;
10517;SDS011;5307;42.548;22.968;2022-12-17T13:38:15;35.50;;;20.70;;
10517;SDS011;5307;42.548;22.968;2022-12-17T13:40:47;15.35;;;9.18;;
10517;SDS011;5307;42.548;22.968;2022-12-17T13:43:30;52.38;;;36.38;;
10517;SDS011;5307;42.548;22.968;2022-12-17T13:45:58;31.98;;;21.17;;
10517;SDS011;5307;42.548;22.968;2022-12-17T13:48:27;30.40;;;18.98;;
10517;SDS011;5307;42.548;22.968;2022-12-17T13:50:55;39.15;;;25.90;;
10517;SDS011;5307;42.548;22.968;2022-12-17T13:53:24;16.23;;;10.57;;
10517;SDS011;5307;42.548;22.968;2022-12-17T13:55:52;22.83;;;15.98;;
10517;SDS011;5307;42.548;22.968;2022-12-17T13:58:21;17.67;;;9.18;;
10517;SDS011;5307;42.548;22.968;2022-12-17T14:00:50;13.98;;;8.27;;
10517;SDS011;5307;42.548;22.968;2022-12-17T14:03:18;20.67;;;12.95;;
10517;SDS011;5307;42.548;22.968;2022-12-17T14:05:48;23.33;;;15.93;;
10517;SDS011;5307;42.548;22.968;2022-12-17T14:08:16;22.60;;;15.80;;
10517;SDS011;5307;42.548;22.968;2022-12-17T14:10:46;23.90;;;13.60;;
10517;SDS011;5307;42.548;22.968;2022-12-17T14:13:16;16.33;;;9.13;;
10517;SDS011;5307;42.548;22.968;2022-12-17T14:15:46;14.73;;;10.43;;
10517;SDS011;5307;42.548;22.968;2022-12-17T14:18:16;22.42;;;16.35;;
10517;SDS011;5307;42.548;22.968;2022-12-17T14:20:45;28.63;;;18.30;;
10517;SDS011;5307;42.548;22.968;2022-12-17T14:23:15;14.95;;;9.13;;
10517;SDS011;5307;42.548;22.968;2022-12-17T14:25:49;22.27;;;13.18;;
10517;SDS011;5307;42.548;22.968;2022-12-17T14:28:20;21.30;;;12.77;;
10517;SDS011;5307;42.548;22.968;2022-12-17T14:30:48;27.20;;;16.95;;
10517;SDS011;5307;42.548;22.968;2022-12-17T14:33:25;27.25;;;14.20;;
10517;SDS011;5307;42.548;22.968;2022-12-17T14:35:53;20.33;;;10.80;;
10517;SDS011;5307;42.548;22.968;2022-12-17T14:38:26;29.77;;;17.75;;
10517;SDS011;5307;42.548;22.968;2022-12-17T14:40:53;31.15;;;17.25;;
10517;SDS011;5307;42.548;22.968;2022-12-17T14:43:53;41.35;;;23.58;;
10517;SDS011;5307;42.548;22.968;2022-12-17T14:46:20;36.63;;;18.70;;
10517;SDS011;5307;42.548;22.968;2022-12-17T14:48:52;43.00;;;22.30;;
10517;SDS011;5307;42.548;22.968;2022-12-17T14:51:32;22.08;;;13.95;;
10517;SDS011;5307;42.548;22.968;2022-12-17T14:54:05;16.33;;;8.85;;
10517;SDS011;5307;42.548;22.968;2022-12-17T14:56:42;17.38;;;6.95;;
10517;SDS011;5307;42.548;22.968;2022-12-17T14:59:20;17.35;;;11.85;;
10517;SDS011;5307;42.548;22.968;2022-12-17T15:01:48;21.10;;;13.48;;
10517;SDS011;5307;42.548;22.968;2022-12-17T15:04:15;46.70;;;23.52;;
10517;SDS011;5307;42.548;22.968;2022-12-17T15:06:43;41.03;;;20.88;;
10517;SDS011;5307;42.548;22.968;2022-12-17T15:09:11;48.22;;;20.35;;
10517;SDS011;5307;42.548;22.968;2022-12-17T15:11:39;41.20;;;18.25;;
10517;SDS011;5307;42.548;22.968;2022-12-17T15:14:05;37.85;;;17.70;;
10517;SDS011;5307;42.548;22.968;2022-12-17T15:16:32;37.72;;;17.98;;
10517;SDS011;5307;42.548;22.968;2022-12-17T15:18:59;29.75;;;12.23;;
10517;SDS011;5307;42.548;22.968;2022-12-17T15:21:28;29.98;;;14.10;;
10517;SDS011;5307;42.548;22.968;2022-12-17T15:23:55;31.02;;;15.35;;
10517;SDS011;5307;42.548;22.968;2022-12-17T15:26:23;36.08;;;17.80;;
10517;SDS011;5307;42.548;22.968;2022-12-17T15:28:50;24.25;;;12.43;;
10517;SDS011;5307;42.548;22.968;2022-12-17T15:31:17;19.33;;;10.65;;
10517;SDS011;5307;42.548;22.968;2022-12-17T15:33:44;39.38;;;16.77;;
10517;SDS011;5307;42.548;22.968;2022-12-17T15:36:11;41.38;;;20.52;;
10517;SDS011;5307;42.548;22.968;2022-12-17T15:38:38;37.28;;;19.25;;
10517;SDS011;5307;42.548;22.968;2022-12-17T15:41:05;36.47;;;19.15;;
10517;SDS011;5307;42.548;22.968;2022-12-17T15:43:47;26.90;;;12.88;;
10517;SDS011;5307;42.548;22.968;2022-12-17T15:46:14;21.00;;;11.35;;
10517;SDS011;5307;42.548;22.968;2022-12-17T15:48:41;23.35;;;12.32;;
10517;SDS011;5307;42.548;22.968;2022-12-17T15:51:08;37.25;;;21.15;;
10517;SDS011;5307;42.548;22.968;2022-12-17T15:53:35;28.40;;;11.85;;
10517;SDS011;5307;42.548;22.968;2022-12-17T15:56:02;22.65;;;12.63;;
10517;SDS011;5307;42.548;22.968;2022-12-17T15:58:29;22.05;;;9.18;;
10517;SDS011;5307;42.548;22.968;2022-12-17T16:00:58;23.27;;;11.02;;
10517;SDS011;5307;42.548;22.968;2022-12-17T16:03:24;22.70;;;10.63;;
10517;SDS011;5307;42.548;22.968;2022-12-17T16:05:51;32.55;;;19.80;;
10517;SDS011;5307;42.548;22.968;2022-12-17T16:08:18;28.20;;;16.30;;
10517;SDS011;5307;42.548;22.968;2022-12-17T16:10:45;34.45;;;16.10;;
10517;SDS011;5307;42.548;22.968;2022-12-17T16:13:11;41.78;;;22.33;;
10517;SDS011;5307;42.548;22.968;2022-12-17T16:15:39;37.38;;;20.30;;